Overview Statistics Trail Chart Weather Telemetry Raw packets
 

This is the latest recevied weather packets stored in our database for station/object SP3ZBZ-13. If no packets are shown the sender has not sent any weather packets the latest 10 day(s).

<< 28 29 30 31 32 33 34 >>
Time Temp. Humidity Pressure Rain* Wind** Luminosity Snow
1787945350 17.78° C 84% 1006.7 hPa 0.76 mm - - -
1787944450 18.33° C 75% 1006.8 hPa 0.76 mm - - -
1787943548 19.44° C 71% 1006.7 hPa 0.76 mm - - -
1787942648 19.44° C 71% 1006.9 hPa 0.76 mm - - -
1787941747 22.22° C 48% 1007.1 hPa 0.25 mm - - -
1787940846 22.78° C 46% 1007.1 hPa - - - -
1787939945 23.33° C 43% 1006.8 hPa - - - -
1787939044 23.33° C 44% 1006.7 hPa - - 2 W/m² -
1787938143 23.33° C 46% 1006.7 hPa - - 5 W/m² -
1787937242 23.33° C 45% 1007 hPa - - 3 W/m² -
1787936342 23.33° C 45% 1007.3 hPa - - 10 W/m² -
1787935440 23.33° C 45% 1007.6 hPa - - 19 W/m² -
1787934539 23.89° C 44% 1007.9 hPa - - 36 W/m² -
1787933639 23.89° C 44% 1008.5 hPa - - 80 W/m² -
1787932738 23.89° C 44% 1008.5 hPa - - 99 W/m² -
1787931836 23.89° C 44% 1009.1 hPa - - 99 W/m² -
1787930034 24.44° C 43% 1008.8 hPa - - 42 W/m² -
1787929133 25° C 43% 1008.8 hPa - - 122 W/m² -
1787928233 25° C 43% 1008.9 hPa - - 81 W/m² -
1787927332 25° C 42% 1008.8 hPa - - 92 W/m² -
1787926431 25° C 44% 1008.7 hPa - - 111 W/m² -
1787925530 25° C 43% 1008.8 hPa - - 118 W/m² -
1787924629 25° C 43% 1008.8 hPa - - 156 W/m² -
1787923728 24.44° C 44% 1008.6 hPa - - 80 W/m² -
1787922827 24.44° C 45% 1008.7 hPa - - 69 W/m² -

* Rain latest hour (hover to see other rain measurements)
** Current wind speed in m/s (hover to see current wind gust speed)